createdAt,value
2023-05-13T00:00:45.831Z,8.95
2023-05-13T00:03:12.989Z,8.27
2023-05-13T00:05:40.722Z,8.20
2023-05-13T00:08:07.707Z,8.00
2023-05-13T00:10:35.685Z,8.15
2023-05-13T00:13:04.364Z,8.43
2023-05-13T00:15:31.895Z,8.82
2023-05-13T00:17:58.922Z,8.32
2023-05-13T00:20:26.299Z,9.05
2023-05-13T00:22:53.249Z,8.88
2023-05-13T00:25:20.252Z,9.27
2023-05-13T00:27:47.509Z,9.13
2023-05-13T00:30:14.660Z,9.38
2023-05-13T00:32:42.313Z,9.82
2023-05-13T00:35:10.163Z,9.15
2023-05-13T00:37:39.044Z,8.82
2023-05-13T00:40:07.954Z,9.55
2023-05-13T00:42:34.938Z,10.02
2023-05-13T00:45:03.039Z,9.43
2023-05-13T00:47:30.660Z,9.38
2023-05-13T00:49:58.176Z,10.50
2023-05-13T00:52:26.232Z,9.85
2023-05-13T00:54:53.342Z,9.93
2023-05-13T00:57:21.506Z,9.50
2023-05-13T00:59:48.921Z,9.57
2023-05-13T01:02:34.937Z,10.05
2023-05-13T01:05:11.267Z,9.80
2023-05-13T01:07:59.617Z,9.85
2023-05-13T01:10:51.714Z,10.68
2023-05-13T01:13:25.092Z,11.80
2023-05-13T01:16:01.027Z,12.05
2023-05-13T01:18:36.267Z,10.90
2023-05-13T01:21:05.346Z,11.85
2023-05-13T01:23:33.192Z,11.52
2023-05-13T01:26:00.549Z,11.98
2023-05-13T01:28:29.634Z,11.27
2023-05-13T01:30:57.642Z,12.10
2023-05-13T01:33:27.174Z,11.57
2023-05-13T01:35:54.928Z,11.38
2023-05-13T01:38:26.019Z,11.43
2023-05-13T01:40:56.893Z,11.25
2023-05-13T01:43:24.017Z,12.57
2023-05-13T01:45:52.623Z,11.80
2023-05-13T01:48:22.269Z,11.40
2023-05-13T01:50:49.629Z,11.88
2023-05-13T01:53:16.599Z,10.85
2023-05-13T01:55:44.316Z,10.68
2023-05-13T01:58:11.618Z,11.35
2023-05-13T02:00:40.045Z,11.55
2023-05-13T02:03:07.212Z,10.15
2023-05-13T02:05:34.294Z,11.02
2023-05-13T02:08:06.601Z,11.15
2023-05-13T02:10:33.607Z,11.25
2023-05-13T02:13:02.131Z,11.68
2023-05-13T02:15:29.215Z,12.48
2023-05-13T02:17:56.549Z,11.48
2023-05-13T02:20:27.054Z,11.65
2023-05-13T02:22:54.768Z,12.02
2023-05-13T02:25:21.749Z,11.93
2023-05-13T02:27:49.238Z,12.60
2023-05-13T02:30:16.430Z,12.30
2023-05-13T02:32:45.295Z,12.00
2023-05-13T02:35:12.508Z,16.02
2023-05-13T02:37:39.615Z,14.88
2023-05-13T02:40:08.031Z,15.27
2023-05-13T02:42:35.189Z,15.77
2023-05-13T02:45:02.846Z,14.80
2023-05-13T02:47:32.899Z,14.35
2023-05-13T02:50:06.391Z,14.17
2023-05-13T02:52:36.028Z,15.20
2023-05-13T02:55:03.971Z,16.40
2023-05-13T02:57:31.184Z,15.45
2023-05-13T02:59:58.865Z,15.77
2023-05-13T03:02:26.049Z,17.08
2023-05-13T03:04:55.062Z,15.30
2023-05-13T03:07:22.594Z,14.18
2023-05-13T03:09:49.555Z,14.60
2023-05-13T03:12:19.303Z,15.10
2023-05-13T03:14:48.296Z,14.05
2023-05-13T03:17:16.887Z,14.98
2023-05-13T03:19:45.528Z,14.90
2023-05-13T03:22:14.369Z,14.85
2023-05-13T03:24:42.842Z,16.00
2023-05-13T03:27:10.673Z,15.18
2023-05-13T03:29:39.279Z,14.57
2023-05-13T03:32:07.309Z,15.25
2023-05-13T03:34:37.392Z,17.17
2023-05-13T03:37:05.405Z,17.30
2023-05-13T03:39:32.373Z,16.00
2023-05-13T03:41:59.888Z,17.83
2023-05-13T03:44:27.144Z,17.92
2023-05-13T03:46:54.334Z,17.00
2023-05-13T03:49:21.757Z,17.77
2023-05-13T03:51:48.752Z,16.88
2023-05-13T03:54:16.215Z,16.77
2023-05-13T03:56:43.417Z,15.00
2023-05-13T03:59:10.506Z,16.38
2023-05-13T04:01:37.463Z,16.13
2023-05-13T04:04:04.662Z,15.77
2023-05-13T04:06:32.492Z,16.15
2023-05-13T04:09:01.121Z,15.70
2023-05-13T04:11:28.204Z,15.45
2023-05-13T04:13:55.543Z,18.55
2023-05-13T04:16:22.966Z,19.23
2023-05-13T04:18:50.221Z,17.70
2023-05-13T04:21:17.513Z,16.60
2023-05-13T04:23:44.575Z,16.00
2023-05-13T04:26:13.866Z,16.77
2023-05-13T04:28:41.612Z,17.05
2023-05-13T04:31:08.771Z,16.20
2023-05-13T04:33:37.863Z,16.25
2023-05-13T04:36:06.018Z,16.38
2023-05-13T04:38:33.217Z,17.80
2023-05-13T04:41:01.142Z,17.92
2023-05-13T04:43:39.101Z,17.63
2023-05-13T04:46:06.224Z,18.15
2023-05-13T04:48:33.272Z,16.63
2023-05-13T04:51:00.789Z,16.98
2023-05-13T04:53:29.665Z,17.15
2023-05-13T04:56:04.361Z,17.70
2023-05-13T04:58:31.559Z,19.20
2023-05-13T05:00:58.680Z,19.38
2023-05-13T05:03:25.860Z,18.17
2023-05-13T05:05:53.932Z,18.25
2023-05-13T05:08:22.162Z,18.10
2023-05-13T05:10:50.915Z,19.50
2023-05-13T05:13:21.391Z,18.80
2023-05-13T05:15:49.397Z,19.08
2023-05-13T05:18:16.830Z,18.45
2023-05-13T05:20:47.439Z,18.23
2023-05-13T05:23:18.070Z,18.83
2023-05-13T05:25:58.067Z,17.65
2023-05-13T05:28:40.427Z,17.30
2023-05-13T05:31:08.510Z,17.10
2023-05-13T05:33:36.813Z,15.93
2023-05-13T05:36:04.649Z,15.90
2023-05-13T05:38:31.702Z,15.82
2023-05-13T05:41:01.248Z,14.98
2023-05-13T05:43:29.363Z,14.00
2023-05-13T05:45:56.492Z,15.13
2023-05-13T05:48:23.593Z,14.15
2023-05-13T05:50:51.073Z,13.52
2023-05-13T05:53:26.632Z,12.68
2023-05-13T05:55:54.437Z,13.85
2023-05-13T05:58:21.794Z,13.88
2023-05-13T06:00:49.083Z,13.70
2023-05-13T06:03:16.151Z,12.50
2023-05-13T06:05:44.552Z,13.52
2023-05-13T06:08:13.377Z,13.13
2023-05-13T06:10:40.969Z,13.77
2023-05-13T06:13:07.915Z,14.20
2023-05-13T06:15:38.328Z,14.52
2023-05-13T06:18:06.125Z,12.88
2023-05-13T06:20:36.195Z,13.05
2023-05-13T06:23:03.213Z,12.57
2023-05-13T06:25:31.383Z,12.38
2023-05-13T06:28:03.125Z,12.70
2023-05-13T06:30:30.501Z,12.30
2023-05-13T06:33:02.191Z,12.20
2023-05-13T06:35:31.278Z,13.05
2023-05-13T06:37:59.423Z,11.60
2023-05-13T06:40:26.982Z,11.57
2023-05-13T06:42:55.418Z,12.00
2023-05-13T06:45:29.567Z,11.80
2023-05-13T06:47:58.524Z,12.15
2023-05-13T06:50:25.592Z,11.75
2023-05-13T06:52:52.752Z,11.93
2023-05-13T06:55:19.947Z,11.38
2023-05-13T06:57:47.463Z,11.70
2023-05-13T07:00:15.581Z,11.35
2023-05-13T07:02:42.836Z,11.55
2023-05-13T07:05:12.212Z,11.55
2023-05-13T07:07:39.350Z,11.50
2023-05-13T07:10:06.577Z,12.00
2023-05-13T07:12:33.908Z,11.70
2023-05-13T07:15:01.024Z,10.93
2023-05-13T07:17:28.378Z,11.15
2023-05-13T07:19:56.362Z,10.38
2023-05-13T07:22:23.379Z,11.50
2023-05-13T07:24:50.452Z,10.98
2023-05-13T07:27:17.413Z,11.50
2023-05-13T07:29:44.380Z,10.15
2023-05-13T07:32:11.429Z,10.45
2023-05-13T07:34:39.068Z,11.55
2023-05-13T07:37:06.318Z,11.48
2023-05-13T07:39:33.279Z,11.30
2023-05-13T07:42:00.885Z,11.18
2023-05-13T07:44:28.207Z,11.05
2023-05-13T07:46:55.781Z,10.52
2023-05-13T07:49:23.365Z,10.85
2023-05-13T07:51:50.666Z,11.95
2023-05-13T07:54:18.802Z,11.10
2023-05-13T07:56:47.270Z,11.07
2023-05-13T07:59:14.240Z,10.63
2023-05-13T08:01:42.192Z,10.70
2023-05-13T08:04:09.269Z,11.45
2023-05-13T08:06:37.169Z,11.00
2023-05-13T08:09:04.318Z,10.38
2023-05-13T08:11:31.552Z,10.45
2023-05-13T08:14:00.705Z,10.52
2023-05-13T08:16:27.716Z,10.65
2023-05-13T08:18:55.348Z,9.88
2023-05-13T08:21:22.311Z,10.07
2023-05-13T08:23:52.173Z,9.55
2023-05-13T08:26:19.512Z,9.82
2023-05-13T08:28:46.866Z,9.43
2023-05-13T08:31:14.347Z,9.88
2023-05-13T08:33:47.549Z,9.40
2023-05-13T08:36:15.340Z,10.60
2023-05-13T08:38:43.738Z,9.65
2023-05-13T08:41:14.767Z,9.05
2023-05-13T08:43:46.921Z,9.55
2023-05-13T08:46:17.291Z,9.20
2023-05-13T08:48:45.959Z,8.77
2023-05-13T08:51:14.761Z,9.90
2023-05-13T08:53:42.859Z,9.13
2023-05-13T08:56:10.706Z,9.50
2023-05-13T08:58:37.722Z,9.85
2023-05-13T09:01:07.663Z,9.80
2023-05-13T09:03:36.012Z,9.82
2023-05-13T09:06:03.749Z,8.77
2023-05-13T09:08:32.749Z,9.73
2023-05-13T09:11:01.048Z,9.93
2023-05-13T09:13:28.162Z,9.48
2023-05-13T09:15:55.874Z,8.75
2023-05-13T09:18:32.862Z,9.68
2023-05-13T09:21:27.110Z,9.38
2023-05-13T09:24:11.331Z,9.75
2023-05-13T09:26:39.608Z,10.23
2023-05-13T09:29:39.162Z,9.40
2023-05-13T09:32:09.904Z,10.05
2023-05-13T09:34:37.149Z,10.00
2023-05-13T09:37:17.390Z,9.15
2023-05-13T09:39:44.330Z,8.75
2023-05-13T09:42:19.107Z,9.63
2023-05-13T09:44:47.829Z,8.85
2023-05-13T09:47:16.023Z,7.97
2023-05-13T09:49:44.660Z,7.55
2023-05-13T09:52:12.049Z,8.07
2023-05-13T09:54:39.321Z,7.80
2023-05-13T09:57:06.830Z,8.10
2023-05-13T09:59:35.190Z,7.82
2023-05-13T10:02:06.712Z,7.78
2023-05-13T10:04:36.361Z,7.28
2023-05-13T10:07:05.234Z,6.40
2023-05-13T10:09:36.584Z,6.65
2023-05-13T10:12:06.826Z,6.85
2023-05-13T10:14:34.831Z,7.00
2023-05-13T10:17:02.551Z,7.38
2023-05-13T10:19:29.888Z,7.60
2023-05-13T10:21:58.500Z,7.20
2023-05-13T10:24:27.283Z,7.47
2023-05-13T10:26:54.863Z,6.18
2023-05-13T10:29:23.522Z,6.47
2023-05-13T10:31:51.270Z,6.63
2023-05-13T10:34:18.390Z,7.07
2023-05-13T10:37:05.091Z,5.45
2023-05-13T10:40:04.967Z,6.88
2023-05-13T10:42:43.410Z,5.43
2023-05-13T10:45:11.252Z,5.43
2023-05-13T10:47:39.206Z,5.05
2023-05-13T10:50:26.930Z,5.40
2023-05-13T10:52:59.711Z,4.68
2023-05-13T10:55:27.372Z,4.75
2023-05-13T10:58:12.246Z,4.30
2023-05-13T11:00:41.502Z,4.38
2023-05-13T11:03:20.852Z,4.30
2023-05-13T11:06:00.215Z,4.45
2023-05-13T11:08:39.704Z,4.45
2023-05-13T11:11:21.176Z,3.78
2023-05-13T11:13:54.895Z,4.07
2023-05-13T11:16:24.342Z,4.10
2023-05-13T11:18:53.044Z,3.30
2023-05-13T11:21:33.121Z,3.60
2023-05-13T11:24:06.021Z,3.75
2023-05-13T11:26:47.068Z,3.60
2023-05-13T11:29:15.791Z,4.05
2023-05-13T11:31:53.217Z,4.22
2023-05-13T11:34:20.802Z,3.75
2023-05-13T11:36:49.141Z,3.58
2023-05-13T11:39:18.684Z,3.38
2023-05-13T11:41:50.931Z,3.38
2023-05-13T11:44:23.137Z,3.53
2023-05-13T11:46:56.827Z,3.10
2023-05-13T11:49:41.087Z,3.40
2023-05-13T11:52:10.454Z,3.40
2023-05-13T11:54:42.337Z,3.03
2023-05-13T11:57:20.332Z,3.88
2023-05-13T11:59:55.939Z,3.08
2023-05-13T12:02:25.411Z,3.60
2023-05-13T12:04:55.170Z,3.75
2023-05-13T12:07:23.964Z,3.35
2023-05-13T12:09:53.406Z,3.40
2023-05-13T12:12:20.804Z,4.05
2023-05-13T12:14:50.505Z,3.35
2023-05-13T12:17:18.755Z,3.28
2023-05-13T12:20:11.488Z,4.10
2023-05-13T12:22:49.759Z,4.38
2023-05-13T12:25:43.725Z,3.13
2023-05-13T12:28:24.167Z,2.80
2023-05-13T12:30:54.897Z,3.47
2023-05-13T12:33:29.534Z,3.25
2023-05-13T12:36:33.772Z,2.97
2023-05-13T12:39:04.555Z,3.08
2023-05-13T12:41:36.509Z,2.78
2023-05-13T12:44:16.446Z,2.53
2023-05-13T12:46:54.720Z,3.08
2023-05-13T12:49:23.530Z,3.15
2023-05-13T12:51:51.898Z,2.58
2023-05-13T12:54:19.120Z,3.25
2023-05-13T12:56:46.247Z,2.80
2023-05-13T12:59:15.002Z,2.90
2023-05-13T13:01:44.321Z,2.30
2023-05-13T13:04:13.109Z,2.55
2023-05-13T13:06:43.308Z,2.38
2023-05-13T13:09:12.654Z,2.65
2023-05-13T13:11:39.662Z,2.67
2023-05-13T13:14:08.838Z,2.55
2023-05-13T13:16:37.105Z,2.95
2023-05-13T13:19:05.863Z,2.13
2023-05-13T13:21:33.077Z,3.00
2023-05-13T13:24:00.353Z,4.28
2023-05-13T13:26:31.584Z,2.92
2023-05-13T13:28:58.721Z,2.38
2023-05-13T13:31:25.811Z,2.20
2023-05-13T13:33:54.055Z,2.72
2023-05-13T13:36:21.025Z,2.58
2023-05-13T13:38:48.015Z,2.45
2023-05-13T13:41:14.958Z,2.35
2023-05-13T13:43:41.960Z,2.20
2023-05-13T13:46:08.900Z,2.50
2023-05-13T13:48:35.831Z,2.30
2023-05-13T13:51:03.117Z,2.22
2023-05-13T13:53:31.204Z,2.38
2023-05-13T13:55:58.334Z,2.50
2023-05-13T13:58:26.251Z,3.40
2023-05-13T14:00:56.736Z,2.55
2023-05-13T14:03:24.712Z,2.47
2023-05-13T14:05:52.324Z,2.30
2023-05-13T14:08:20.459Z,2.20
2023-05-13T14:10:47.448Z,2.72
2023-05-13T14:13:15.541Z,2.00
2023-05-13T14:15:42.467Z,2.10
2023-05-13T14:18:10.590Z,2.45
2023-05-13T14:20:38.849Z,2.10
2023-05-13T14:23:05.834Z,1.90
2023-05-13T14:25:33.855Z,1.98
2023-05-13T14:28:00.824Z,2.28
2023-05-13T14:30:28.461Z,2.05
2023-05-13T14:32:55.704Z,1.70
2023-05-13T14:35:22.697Z,2.10
2023-05-13T14:37:49.701Z,2.67
2023-05-13T14:40:17.005Z,2.33
2023-05-13T14:42:44.373Z,2.38
2023-05-13T14:45:15.935Z,2.05
2023-05-13T14:47:46.426Z,2.13
2023-05-13T14:50:15.271Z,1.98
2023-05-13T14:52:44.984Z,2.25
2023-05-13T14:55:12.508Z,2.72
2023-05-13T14:57:40.638Z,2.85
2023-05-13T15:00:09.089Z,2.78
2023-05-13T15:02:41.633Z,2.35
2023-05-13T15:05:09.174Z,2.78
2023-05-13T15:07:37.098Z,3.40
2023-05-13T15:10:04.484Z,3.58
2023-05-13T15:12:31.963Z,3.08
2023-05-13T15:15:00.473Z,11.10
2023-05-13T15:17:29.120Z,4.93
2023-05-13T15:19:56.163Z,6.50
2023-05-13T15:22:24.558Z,4.35
2023-05-13T15:24:51.615Z,6.45
2023-05-13T15:27:19.634Z,4.80
2023-05-13T15:29:46.550Z,6.88
2023-05-13T15:32:13.606Z,3.78
2023-05-13T15:34:41.366Z,2.70
2023-05-13T15:37:08.441Z,3.15
2023-05-13T15:39:37.814Z,2.95
2023-05-13T15:42:05.051Z,2.95
2023-05-13T15:44:32.356Z,2.50
2023-05-13T15:46:59.533Z,3.20
2023-05-13T15:49:27.833Z,2.95
2023-05-13T15:51:56.253Z,3.17
2023-05-13T15:54:24.758Z,3.42
2023-05-13T15:56:52.938Z,2.95
2023-05-13T15:59:20.177Z,3.00
2023-05-13T16:01:47.722Z,3.47
2023-05-13T16:04:15.489Z,3.10
2023-05-13T16:06:43.135Z,2.88
2023-05-13T16:09:13.449Z,2.75
2023-05-13T16:11:40.386Z,3.33
2023-05-13T16:14:08.789Z,3.45
2023-05-13T16:16:35.887Z,3.40
2023-05-13T16:19:03.831Z,2.95
2023-05-13T16:21:32.348Z,2.67
2023-05-13T16:23:59.253Z,2.60
2023-05-13T16:26:26.397Z,2.63
2023-05-13T16:28:54.906Z,2.85
2023-05-13T16:31:23.416Z,2.58
2023-05-13T16:33:51.505Z,2.30
2023-05-13T16:36:18.472Z,2.20
2023-05-13T16:38:53.478Z,2.63
2023-05-13T16:41:21.190Z,1.80
2023-05-13T16:43:48.293Z,3.88
2023-05-13T16:46:16.680Z,2.70
2023-05-13T16:48:44.695Z,2.47
2023-05-13T16:51:11.667Z,1.90
2023-05-13T16:53:38.842Z,2.40
2023-05-13T16:56:06.029Z,1.88
2023-05-13T16:58:33.932Z,1.85
2023-05-13T17:01:01.256Z,2.05
2023-05-13T17:03:28.685Z,2.63
2023-05-13T17:05:56.802Z,2.15
2023-05-13T17:08:27.487Z,2.85
2023-05-13T17:10:55.817Z,3.97
2023-05-13T17:13:23.215Z,2.47
2023-05-13T17:15:52.976Z,2.25
2023-05-13T17:18:19.991Z,2.55
2023-05-13T17:20:47.955Z,2.17
2023-05-13T17:23:19.079Z,2.78
2023-05-13T17:25:50.665Z,2.83
2023-05-13T17:28:20.548Z,3.08
2023-05-13T17:30:47.827Z,2.53
2023-05-13T17:33:15.095Z,2.45
2023-05-13T17:35:42.720Z,2.20
2023-05-13T17:38:11.350Z,2.17
2023-05-13T17:40:39.474Z,2.10
2023-05-13T17:43:06.890Z,3.97
2023-05-13T17:45:35.803Z,2.47
2023-05-13T17:48:03.234Z,2.92
2023-05-13T17:50:32.127Z,4.40
2023-05-13T17:53:00.482Z,2.60
2023-05-13T17:55:27.387Z,2.67
2023-05-13T17:57:58.968Z,3.70
2023-05-13T18:00:28.475Z,3.03
2023-05-13T18:02:58.191Z,3.20
2023-05-13T18:05:25.512Z,3.05
2023-05-13T18:07:52.925Z,2.85
2023-05-13T18:10:20.159Z,2.95
2023-05-13T18:12:48.645Z,3.20
2023-05-13T18:15:15.926Z,3.03
2023-05-13T18:17:44.947Z,3.30
2023-05-13T18:20:13.112Z,2.95
2023-05-13T18:22:40.413Z,3.17
2023-05-13T18:25:08.267Z,3.58
2023-05-13T18:27:35.617Z,2.83
2023-05-13T18:30:03.584Z,3.28
2023-05-13T18:32:31.320Z,3.00
2023-05-13T18:34:58.392Z,2.90
2023-05-13T18:37:25.749Z,3.15
2023-05-13T18:39:52.951Z,5.30
2023-05-13T18:42:25.619Z,7.25
2023-05-13T18:44:52.972Z,4.60
2023-05-13T18:47:20.322Z,3.05
2023-05-13T18:49:47.510Z,5.32
2023-05-13T18:52:15.561Z,4.70
2023-05-13T18:54:43.448Z,44.33
2023-05-13T18:57:11.629Z,5.15
2023-05-13T18:59:39.649Z,7.50
2023-05-13T19:02:09.797Z,5.50
2023-05-13T19:04:38.795Z,11.05
2023-05-13T19:07:07.645Z,3.88
2023-05-13T19:09:39.416Z,2.90
2023-05-13T19:12:09.258Z,8.02
2023-05-13T19:14:37.206Z,3.72
2023-05-13T19:17:05.204Z,3.13
2023-05-13T19:19:33.174Z,3.72
2023-05-13T19:22:01.621Z,3.42
2023-05-13T19:24:30.025Z,3.22
2023-05-13T19:27:00.034Z,3.25
2023-05-13T19:29:27.524Z,3.03
2023-05-13T19:31:54.544Z,2.80
2023-05-13T19:34:22.427Z,3.67
2023-05-13T19:36:51.644Z,3.63
2023-05-13T19:39:18.642Z,3.33
2023-05-13T19:41:47.622Z,3.28
2023-05-13T19:44:14.800Z,2.90
2023-05-13T19:46:42.141Z,3.03
2023-05-13T19:49:10.362Z,3.83
2023-05-13T19:51:37.438Z,3.40
2023-05-13T19:54:09.592Z,2.70
2023-05-13T19:56:37.242Z,2.85
2023-05-13T19:59:05.345Z,3.17
2023-05-13T20:01:34.796Z,3.75
2023-05-13T20:04:04.997Z,3.13
2023-05-13T20:06:33.524Z,2.83
2023-05-13T20:09:02.766Z,3.55
2023-05-13T20:11:30.955Z,3.38
2023-05-13T20:14:00.550Z,3.38
2023-05-13T20:16:29.602Z,3.05
2023-05-13T20:18:56.910Z,3.20
2023-05-13T20:21:24.935Z,3.38
2023-05-13T20:23:52.349Z,2.90
2023-05-13T20:26:21.013Z,3.30
2023-05-13T20:28:48.769Z,2.85
2023-05-13T20:34:00.501Z,3.35
2023-05-13T20:36:27.997Z,3.45
2023-05-13T20:38:55.854Z,3.22
2023-05-13T20:41:24.944Z,3.05
2023-05-13T20:43:51.978Z,3.10
2023-05-13T20:46:19.222Z,3.63
2023-05-13T20:48:47.815Z,3.65
2023-05-13T20:51:16.612Z,3.70
2023-05-13T20:53:43.830Z,4.05
2023-05-13T20:56:11.636Z,4.32
2023-05-13T20:58:38.964Z,4.10
2023-05-13T21:01:07.845Z,3.58
2023-05-13T21:03:35.496Z,4.13
2023-05-13T21:06:03.058Z,3.58
2023-05-13T21:08:30.280Z,4.00
2023-05-13T21:11:00.956Z,3.95
2023-05-13T21:13:28.133Z,3.97
2023-05-13T21:15:58.607Z,3.45
2023-05-13T21:18:27.076Z,3.75
2023-05-13T21:20:54.984Z,4.05
2023-05-13T21:23:22.083Z,3.80
2023-05-13T21:25:50.969Z,4.45
2023-05-13T21:28:19.230Z,4.28
2023-05-13T21:30:46.575Z,4.50
2023-05-13T21:33:14.911Z,4.25
2023-05-13T21:35:43.300Z,4.20
2023-05-13T21:38:12.395Z,4.35
2023-05-13T21:40:41.208Z,4.70
2023-05-13T21:43:09.339Z,4.15
2023-05-13T21:45:36.654Z,4.80
2023-05-13T21:48:04.521Z,4.45
2023-05-13T21:50:42.562Z,4.43
2023-05-13T21:53:09.809Z,4.63
2023-05-13T21:55:36.939Z,5.28
2023-05-13T21:58:04.224Z,4.53
2023-05-13T22:00:32.049Z,4.53
2023-05-13T22:03:00.633Z,4.47
2023-05-13T22:05:28.526Z,4.82
2023-05-13T22:07:57.562Z,4.47
2023-05-13T22:10:25.128Z,5.15
2023-05-13T22:12:52.419Z,4.93
2023-05-13T22:15:20.904Z,4.57
2023-05-13T22:17:50.815Z,4.55
2023-05-13T22:20:19.258Z,4.78
2023-05-13T22:22:48.174Z,4.53
2023-05-13T22:25:15.362Z,5.22
2023-05-13T22:27:42.604Z,4.78
2023-05-13T22:30:09.934Z,4.88
2023-05-13T22:32:38.645Z,4.90
2023-05-13T22:35:06.801Z,4.68
2023-05-13T22:37:35.023Z,5.43
2023-05-13T22:40:03.790Z,5.93
2023-05-13T22:42:30.778Z,6.25
2023-05-13T22:44:57.881Z,6.00
2023-05-13T22:47:25.623Z,6.00
2023-05-13T22:49:52.869Z,6.00
2023-05-13T22:52:24.253Z,5.20
2023-05-13T22:54:52.309Z,5.75
2023-05-13T22:57:19.664Z,6.38
2023-05-13T22:59:47.138Z,5.85
2023-05-13T23:02:15.874Z,6.25
2023-05-13T23:04:44.327Z,7.32
2023-05-13T23:07:14.567Z,6.68
2023-05-13T23:09:43.183Z,7.03
2023-05-13T23:12:12.911Z,7.43
2023-05-13T23:14:40.847Z,8.07
2023-05-13T23:17:08.724Z,7.75
2023-05-13T23:19:39.566Z,10.48
2023-05-13T23:22:07.133Z,11.63
2023-05-13T23:24:34.983Z,11.98
2023-05-13T23:27:01.914Z,14.85
2023-05-13T23:29:28.925Z,15.25
2023-05-13T23:31:56.134Z,14.90
2023-05-13T23:34:23.202Z,14.48
2023-05-13T23:36:50.144Z,17.08
2023-05-13T23:39:19.594Z,18.73
2023-05-13T23:41:47.228Z,21.05
2023-05-13T23:44:14.361Z,19.67
2023-05-13T23:46:41.275Z,20.60
2023-05-13T23:49:09.474Z,24.20
2023-05-13T23:51:36.606Z,26.13
2023-05-13T23:54:03.773Z,25.40
2023-05-13T23:56:32.720Z,26.52
2023-05-13T23:58:59.824Z,29.90
